Time;durP1;ratioP1;P1;durP2;ratioP2;P2;SDS_P1;SDS_P2;PMS_P1;PMS_P2;Temp;Humidity;BMP_temperature;BMP_pressure;BME280_temperature;BME280_humidity;BME280_pressure;Samples;Min_cycle;Max_cycle;Signal;HPM_P1;HPM_P2
2022/11/25 00:01:03;;;;;;;0.77;0.20;;;5.70;99.90;;;;;;5024990;28;20661;-49
2022/11/25 00:03:30;;;;;;;0.37;0.00;;;5.80;99.90;;;;;;5017553;28;20237;-49
2022/11/25 00:05:57;;;;;;;0.20;0.10;;;5.70;99.90;;;;;;5020809;28;20204;-48
2022/11/25 00:08:24;;;;;;;0.97;0.20;;;5.70;99.90;;;;;;5021287;28;20202;-49
2022/11/25 00:10:51;;;;;;;1.40;0.20;;;5.80;99.90;;;;;;5017112;28;20299;-48
2022/11/25 00:13:18;;;;;;;0.57;0.07;;;5.70;99.90;;;;;;5020960;28;20240;-50
2022/11/25 00:15:46;;;;;;;0.53;0.10;;;5.60;99.90;;;;;;5013783;28;20203;-49
2022/11/25 00:18:13;;;;;;;1.47;0.20;;;5.70;99.90;;;;;;5016127;28;20211;-48
2022/11/25 00:20:40;;;;;;;0.37;0.10;;;5.70;99.90;;;;;;5018128;28;20541;-48
2022/11/25 00:23:07;;;;;;;0.93;0.10;;;5.70;99.90;;;;;;5023449;28;20213;-49
2022/11/25 00:25:35;;;;;;;0.10;0.10;;;5.80;99.90;;;;;;5017070;28;20210;-48
2022/11/25 00:28:02;;;;;;;0.50;0.10;;;5.80;99.90;;;;;;5014512;28;20208;-48
2022/11/25 00:30:29;;;;;;;0.10;0.10;;;5.70;99.90;;;;;;5013662;28;20213;-48
2022/11/25 00:32:57;;;;;;;0.20;0.20;;;5.70;99.90;;;;;;5031043;28;20732;-48
2022/11/25 00:35:24;;;;;;;0.13;0.13;;;5.70;99.90;;;;;;5031240;28;20206;-49
2022/11/25 00:37:51;;;;;;;0.40;0.17;;;5.70;99.90;;;;;;5021659;28;20693;-48
2022/11/25 00:40:19;;;;;;;0.20;0.20;;;5.70;99.90;;;;;;5021371;28;20213;-48
2022/11/25 00:45:30;;;;;;;0.50;0.10;;;5.80;99.90;;;;;;5028997;28;20305;-48
2022/11/25 00:47:58;;;;;;;1.13;0.00;;;5.80;99.90;;;;;;5033364;28;20210;-48
2022/11/25 00:50:25;;;;;;;0.00;0.00;;;5.90;99.90;;;;;;5025905;28;20213;-48
2022/11/25 00:52:52;;;;;;;1.10;0.10;;;5.80;99.90;;;;;;5026664;28;20580;-48
2022/11/25 00:55:19;;;;;;;0.03;0.03;;;5.80;99.90;;;;;;5025493;28;20208;-48
2022/11/25 00:57:46;;;;;;;0.10;0.10;;;5.70;99.90;;;;;;5026688;28;20200;-48
2022/11/25 01:00:14;;;;;;;0.03;0.03;;;5.80;99.90;;;;;;5022087;28;20215;-49
2022/11/25 01:02:41;;;;;;;0.87;0.10;;;5.80;99.90;;;;;;5035861;28;20222;-49
2022/11/25 01:05:10;;;;;;;0.07;0.03;;;5.80;99.90;;;;;;5034479;28;20198;-48
2022/11/25 01:07:37;;;;;;;0.20;0.10;;;5.70;99.90;;;;;;5040146;28;20636;-48
2022/11/25 01:10:04;;;;;;;0.47;0.10;;;5.70;99.90;;;;;;5032289;28;20204;-49
2022/11/25 01:12:31;;;;;;;0.20;0.10;;;5.60;99.90;;;;;;5036536;28;20228;-50
2022/11/25 01:14:58;;;;;;;0.10;0.10;;;5.60;99.90;;;;;;5028833;28;20208;-48
2022/11/25 01:17:25;;;;;;;0.23;0.20;;;5.60;99.90;;;;;;5021530;28;20217;-49
2022/11/25 01:19:52;;;;;;;1.67;0.53;;;5.60;99.90;;;;;;5021614;28;20741;-49
2022/11/25 01:22:20;;;;;;;0.50;0.20;;;5.60;99.90;;;;;;5021118;28;20226;-49
2022/11/25 01:24:47;;;;;;;0.20;0.20;;;5.50;99.90;;;;;;5012200;28;20208;-49
2022/11/25 01:27:14;;;;;;;0.30;0.00;;;5.50;99.90;;;;;;5013540;28;20882;-50
2022/11/25 01:29:41;;;;;;;0.20;0.10;;;5.50;99.90;;;;;;5020741;28;20647;-49
2022/11/25 01:32:08;;;;;;;0.20;0.20;;;5.60;99.90;;;;;;5012390;28;20316;-48
2022/11/25 01:34:36;;;;;;;0.50;0.10;;;5.60;99.90;;;;;;5020426;28;20751;-48
2022/11/25 01:37:03;;;;;;;1.50;0.20;;;5.70;99.90;;;;;;5012840;28;20781;-50
2022/11/25 01:39:34;;;;;;;0.50;0.50;;;5.60;99.90;;;;;;5020459;28;20205;-48
2022/11/25 01:42:02;;;;;;;0.10;0.10;;;5.50;99.90;;;;;;5012474;28;20231;-48
2022/11/25 01:44:32;;;;;;;0.20;0.20;;;5.40;99.90;;;;;;5019737;28;20206;-48
2022/11/25 01:47:05;;;;;;;0.33;0.33;;;5.40;99.90;;;;;;5023063;28;20200;-49
2022/11/25 01:49:40;;;;;;;0.27;0.27;;;5.30;99.90;;;;;;5015495;28;20618;-49
2022/11/25 01:52:16;;;;;;;0.17;0.17;;;5.30;99.90;;;;;;5012944;28;20232;-48
2022/11/25 01:54:49;;;;;;;1.37;0.17;;;5.30;99.90;;;;;;5031364;28;20270;-49
2022/11/25 01:57:21;;;;;;;0.30;0.30;;;5.30;99.90;;;;;;5025868;28;20260;-48
2022/11/25 01:59:52;;;;;;;1.20;0.47;;;5.30;99.90;;;;;;5028182;28;20217;-49
2022/11/25 02:02:20;;;;;;;0.17;0.10;;;5.30;99.90;;;;;;5031705;28;20220;-48
2022/11/25 02:04:47;;;;;;;0.50;0.10;;;5.30;99.90;;;;;;5031248;28;20198;-49
2022/11/25 02:07:19;;;;;;;0.13;0.13;;;5.30;99.90;;;;;;5022965;28;20254;-49
2022/11/25 02:09:50;;;;;;;0.10;0.10;;;5.30;99.90;;;;;;5013922;28;20634;-49
2022/11/25 02:12:19;;;;;;;0.10;0.10;;;5.30;99.90;;;;;;5013462;28;20236;-49
2022/11/25 02:14:48;;;;;;;0.40;0.40;;;5.30;99.90;;;;;;5020093;28;20199;-48
2022/11/25 02:17:15;;;;;;;0.83;0.10;;;5.30;99.90;;;;;;5028916;28;20256;-49
2022/11/25 02:19:55;;;;;;;0.00;0.00;;;5.30;99.90;;;;;;5022427;28;20200;-49
2022/11/25 02:22:30;;;;;;;0.10;0.00;;;5.40;99.90;;;;;;5011858;28;20321;-48
2022/11/25 02:25:10;;;;;;;0.17;0.13;;;5.40;99.90;;;;;;5011041;28;20210;-48
2022/11/25 02:27:37;;;;;;;0.37;0.30;;;5.40;99.90;;;;;;5027228;28;20702;-50
2022/11/25 02:30:04;;;;;;;0.10;0.10;;;5.40;99.90;;;;;;5019567;28;20212;-48
2022/11/25 02:32:31;;;;;;;0.63;0.33;;;5.30;99.90;;;;;;5011685;28;20232;-49
2022/11/25 02:34:58;;;;;;;0.50;0.50;;;5.30;99.90;;;;;;5011112;28;20228;-48
2022/11/25 02:37:25;;;;;;;0.70;0.50;;;5.30;99.90;;;;;;5020780;28;20235;-49
2022/11/25 02:39:54;;;;;;;1.27;0.40;;;5.20;99.90;;;;;;5019667;28;20685;-48
2022/11/25 02:42:24;;;;;;;1.87;0.33;;;5.20;99.90;;;;;;5015049;28;20214;-48
2022/11/25 02:44:51;;;;;;;0.63;0.47;;;5.10;99.90;;;;;;5019247;28;20227;-49
2022/11/25 02:47:18;;;;;;;1.90;0.57;;;5.00;99.90;;;;;;5015439;28;20213;-49
2022/11/25 02:49:45;;;;;;;0.37;0.37;;;5.00;99.90;;;;;;5016029;28;20210;-50
2022/11/25 02:52:12;;;;;;;2.00;0.50;;;5.00;99.90;;;;;;5024937;28;20309;-48
2022/11/25 02:54:39;;;;;;;2.13;0.40;;;5.00;99.90;;;;;;5033719;28;20279;-48
2022/11/25 02:57:06;;;;;;;0.50;0.50;;;5.00;99.90;;;;;;5026627;28;20205;-49
2022/11/25 02:59:36;;;;;;;0.60;0.60;;;4.80;99.90;;;;;;5019736;28;20207;-48
2022/11/25 03:02:03;;;;;;;1.77;0.90;;;4.80;99.90;;;;;;5018746;28;20220;-49
2022/11/25 03:04:33;;;;;;;0.50;0.50;;;4.90;99.90;;;;;;5025514;28;20208;-48
2022/11/25 03:07:02;;;;;;;0.40;0.40;;;4.80;99.90;;;;;;5032072;28;20202;-48
2022/11/25 03:09:32;;;;;;;1.10;0.90;;;4.80;99.90;;;;;;5019092;28;20206;-55
2022/11/25 03:14:45;;;;;;;2.50;0.77;;;4.60;99.90;;;;;;5024761;28;20263;-49
2022/11/25 03:17:13;;;;;;;0.67;0.50;;;4.60;99.90;;;;;;5015517;28;20506;-50
2022/11/25 03:19:40;;;;;;;0.50;0.50;;;4.50;99.90;;;;;;5015021;28;20671;-49
2022/11/25 03:22:07;;;;;;;0.63;0.60;;;4.50;99.90;;;;;;5018359;28;20270;-49
2022/11/25 03:24:34;;;;;;;1.30;0.50;;;4.50;99.90;;;;;;5033013;28;20666;-49
2022/11/25 03:27:01;;;;;;;1.67;0.97;;;4.40;99.90;;;;;;5023042;28;20255;-49
2022/11/25 03:29:31;;;;;;;1.83;0.90;;;4.50;99.90;;;;;;5014937;28;20621;-49
2022/11/25 03:32:00;;;;;;;1.60;0.70;;;4.50;99.90;;;;;;5016638;28;20278;-49
2022/11/25 03:34:27;;;;;;;2.97;0.93;;;4.40;99.90;;;;;;5026058;28;20208;-48
2022/11/25 03:36:54;;;;;;;0.60;0.60;;;4.30;99.90;;;;;;5015804;28;20255;-49
2022/11/25 03:39:22;;;;;;;0.90;0.80;;;4.20;99.90;;;;;;5018165;28;20254;-49
2022/11/25 03:41:49;;;;;;;2.27;0.60;;;4.20;99.90;;;;;;5018630;28;20279;-49
2022/11/25 03:44:16;;;;;;;1.13;1.03;;;4.10;99.90;;;;;;5025344;28;20274;-49
2022/11/25 03:46:43;;;;;;;0.77;0.70;;;4.10;99.90;;;;;;5016967;28;20202;-50
2022/11/25 03:49:12;;;;;;;2.33;1.27;;;4.00;99.90;;;;;;5014588;28;20336;-48
2022/11/25 03:51:39;;;;;;;0.97;0.73;;;4.00;99.90;;;;;;5014817;28;20279;-49
2022/11/25 03:54:06;;;;;;;0.60;0.60;;;4.00;99.90;;;;;;5024122;28;20286;-50
2022/11/25 03:56:33;;;;;;;0.73;0.67;;;3.90;99.90;;;;;;5028831;28;20496;-49
2022/11/25 03:59:00;;;;;;;1.10;0.80;;;3.90;99.90;;;;;;5025299;28;20204;-50
2022/11/25 04:01:27;;;;;;;0.73;0.63;;;3.90;99.90;;;;;;5034105;28;20204;-49
2022/11/25 04:03:53;;;;;;;2.83;1.13;;;3.90;99.90;;;;;;5024413;28;20233;-49
2022/11/25 04:06:22;;;;;;;1.23;1.10;;;3.90;99.90;;;;;;5019682;28;20205;-47
2022/11/25 04:08:49;;;;;;;2.23;0.93;;;3.90;99.90;;;;;;5014900;28;20296;-48
2022/11/25 04:11:16;;;;;;;1.20;0.70;;;3.90;99.90;;;;;;5014006;28;20274;-50
2022/11/25 04:13:42;;;;;;;2.60;1.13;;;3.90;99.90;;;;;;5020036;28;20281;-49
2022/11/25 04:16:19;;;;;;;1.10;1.00;;;3.80;99.90;;;;;;5026651;28;20194;-48
2022/11/25 04:18:46;;;;;;;1.80;1.20;;;3.90;99.90;;;;;;5033630;28;20208;-49
2022/11/25 04:21:13;;;;;;;3.30;1.43;;;3.80;99.90;;;;;;5033392;28;20281;-49
2022/11/25 04:23:41;;;;;;;4.40;2.33;;;3.90;99.90;;;;;;5024066;28;20217;-49
2022/11/25 04:26:08;;;;;;;2.13;1.47;;;3.90;99.90;;;;;;5023901;28;20693;-48
2022/11/25 04:28:35;;;;;;;1.20;1.10;;;4.00;99.90;;;;;;5024099;28;20737;-49
2022/11/25 04:31:06;;;;;;;2.70;1.40;;;4.00;99.90;;;;;;5024269;28;20568;-48
2022/11/25 04:33:33;;;;;;;1.60;1.50;;;4.00;99.90;;;;;;5023851;28;20224;-48
2022/11/25 04:36:00;;;;;;;4.37;2.03;;;3.90;99.90;;;;;;5033226;28;20266;-49
2022/11/25 04:38:27;;;;;;;5.47;2.00;;;3.90;99.90;;;;;;5033068;28;20203;-50
2022/11/25 04:40:55;;;;;;;1.70;1.60;;;3.90;99.90;;;;;;5021589;28;20203;-49
2022/11/25 04:43:22;;;;;;;1.77;1.57;;;3.80;99.90;;;;;;5031445;28;20747;-49
2022/11/25 04:45:50;;;;;;;1.23;1.13;;;3.80;99.90;;;;;;5029937;28;20704;-48
2022/11/25 04:48:17;;;;;;;0.93;0.93;;;3.80;99.90;;;;;;5026689;28;20256;-49
2022/11/25 04:50:44;;;;;;;1.00;1.00;;;3.80;99.90;;;;;;5023737;28;20202;-49
2022/11/25 04:53:11;;;;;;;1.13;1.03;;;3.70;99.90;;;;;;5023720;28;20280;-48
2022/11/25 04:55:38;;;;;;;1.53;0.93;;;3.70;99.90;;;;;;5032722;28;20229;-49
2022/11/25 04:58:06;;;;;;;0.80;0.80;;;3.70;99.90;;;;;;5031725;28;20794;-49
2022/11/25 05:00:32;;;;;;;1.57;1.10;;;3.60;99.90;;;;;;5030914;28;20678;-49
2022/11/25 05:02:59;;;;;;;0.83;0.83;;;3.60;99.90;;;;;;5028720;28;20209;-48
2022/11/25 05:05:26;;;;;;;1.13;1.10;;;3.60;99.90;;;;;;5012678;28;20220;-48
2022/11/25 05:07:53;;;;;;;1.00;1.00;;;3.60;99.90;;;;;;5012437;28;20332;-50
2022/11/25 05:10:20;;;;;;;1.13;1.03;;;3.60;99.90;;;;;;5024809;28;20202;-49
2022/11/25 05:12:47;;;;;;;1.47;1.27;;;3.60;99.90;;;;;;5031735;28;20264;-49
2022/11/25 05:15:16;;;;;;;0.93;0.83;;;3.60;99.90;;;;;;5030756;28;20743;-49
2022/11/25 05:17:43;;;;;;;0.80;0.80;;;3.60;99.90;;;;;;5023387;28;20209;-49
2022/11/25 05:20:11;;;;;;;1.70;1.20;;;3.60;99.90;;;;;;5030548;28;20205;-49
2022/11/25 05:22:38;;;;;;;1.40;1.30;;;3.60;99.90;;;;;;5023509;28;20295;-49
2022/11/25 05:25:05;;;;;;;2.03;1.13;;;3.60;99.90;;;;;;5011767;28;20259;-49
2022/11/25 05:27:32;;;;;;;4.27;2.17;;;3.60;99.90;;;;;;5012158;28;20239;-49
2022/11/25 05:29:59;;;;;;;2.40;1.30;;;3.60;99.90;;;;;;5019126;28;20332;-50
2022/11/25 05:32:28;;;;;;;1.50;1.37;;;3.60;99.90;;;;;;5022931;28;20289;-48
2022/11/25 05:34:55;;;;;;;1.50;1.40;;;3.60;99.90;;;;;;5017100;28;20201;-49
2022/11/25 05:37:22;;;;;;;1.23;1.20;;;3.70;99.90;;;;;;5030525;28;20230;-48
2022/11/25 05:39:49;;;;;;;1.00;0.80;;;3.70;99.90;;;;;;5022686;28;20574;-50
2022/11/25 05:42:16;;;;;;;2.03;1.13;;;3.60;99.90;;;;;;5023311;28;20583;-48
2022/11/25 05:44:43;;;;;;;1.80;1.40;;;3.60;99.90;;;;;;5031182;28;20212;-49
2022/11/25 05:47:10;;;;;;;3.13;1.30;;;3.60;99.90;;;;;;5030965;28;20205;-49
2022/11/25 05:49:39;;;;;;;2.17;1.30;;;3.60;99.90;;;;;;5024422;28;20205;-48
2022/11/25 05:52:06;;;;;;;4.27;1.20;;;3.70;99.90;;;;;;5027381;28;20267;-49
2022/11/25 05:54:34;;;;;;;1.53;1.23;;;3.70;99.90;;;;;;5011075;28;20239;-48
2022/11/25 05:57:01;;;;;;;1.43;1.23;;;3.80;99.90;;;;;;5011746;28;20206;-49
2022/11/25 05:59:32;;;;;;;1.00;0.90;;;3.80;99.90;;;;;;5017134;28;20259;-49
2022/11/25 06:01:59;;;;;;;1.70;0.80;;;3.80;99.90;;;;;;5024332;28;20223;-48
2022/11/25 06:04:27;;;;;;;0.77;0.57;;;3.80;99.90;;;;;;5030692;28;20204;-48
2022/11/25 06:06:56;;;;;;;0.83;0.60;;;3.90;99.90;;;;;;5030432;28;20738;-50
2022/11/25 06:09:23;;;;;;;0.50;0.40;;;3.90;99.90;;;;;;5024615;28;20201;-49
2022/11/25 06:11:50;;;;;;;0.30;0.30;;;4.00;99.90;;;;;;5019751;28;20201;-48
2022/11/25 06:14:17;;;;;;;1.23;0.20;;;4.10;99.90;;;;;;5010855;28;20256;-48
2022/11/25 06:16:44;;;;;;;1.00;0.20;;;4.20;99.90;;;;;;5018093;28;20232;-48
2022/11/25 06:19:11;;;;;;;0.20;0.20;;;4.30;99.90;;;;;;5030211;28;20197;-48
2022/11/25 06:21:38;;;;;;;1.00;0.50;;;4.40;99.90;;;;;;5021831;28;20200;-48
2022/11/25 06:24:07;;;;;;;0.33;0.23;;;4.50;99.90;;;;;;5011454;28;20768;-48
2022/11/25 06:26:34;;;;;;;0.97;0.40;;;4.60;99.90;;;;;;5017859;28;20209;-48
2022/11/25 06:29:01;;;;;;;1.17;0.70;;;4.60;99.90;;;;;;5021431;28;20200;-48
2022/11/25 06:31:28;;;;;;;1.40;0.53;;;4.60;99.90;;;;;;5018380;28;20731;-50
2022/11/25 06:33:55;;;;;;;0.70;0.60;;;4.60;99.90;;;;;;5021049;28;20232;-48
2022/11/25 06:36:23;;;;;;;2.77;1.57;;;4.60;99.90;;;;;;5011460;28;20745;-48
2022/11/25 06:38:53;;;;;;;6.43;3.20;;;4.60;99.90;;;;;;5015256;28;20655;-49
2022/11/25 06:41:22;;;;;;;3.90;3.00;;;4.60;99.90;;;;;;5018105;28;20279;-49
2022/11/25 06:43:49;;;;;;;5.43;3.30;;;4.60;99.90;;;;;;5030098;28;20663;-49
2022/11/25 06:46:18;;;;;;;3.33;2.17;;;4.60;99.90;;;;;;5024805;28;20200;-48
2022/11/25 06:48:45;;;;;;;3.70;1.43;;;4.70;99.90;;;;;;5038665;28;20254;-48
2022/11/25 06:51:14;;;;;;;2.10;1.20;;;4.70;99.90;;;;;;5022564;28;20621;-48
2022/11/25 06:53:41;;;;;;;1.17;1.07;;;4.70;99.90;;;;;;5022929;28;20690;-49
2022/11/25 06:56:11;;;;;;;1.67;1.53;;;4.60;99.90;;;;;;5022358;28;20199;-49
2022/11/25 06:58:40;;;;;;;7.67;2.07;;;4.50;99.90;;;;;;5021713;28;20206;-48
2022/11/25 07:01:11;;;;;;;1.47;1.37;;;4.50;99.90;;;;;;5022594;28;20200;-50
2022/11/25 07:03:39;;;;;;;2.10;2.00;;;4.50;99.90;;;;;;5028905;28;20228;-49
2022/11/25 07:06:06;;;;;;;5.20;1.57;;;4.50;99.90;;;;;;5019864;28;20255;-49
2022/11/25 07:08:33;;;;;;;3.17;2.47;;;4.40;99.90;;;;;;5023342;28;20284;-49
2022/11/25 07:11:04;;;;;;;3.77;2.13;;;4.30;99.90;;;;;;5020878;28;20209;-50
2022/11/25 07:13:32;;;;;;;2.00;1.77;;;4.30;99.90;;;;;;5024494;28;20224;-49
2022/11/25 07:16:03;;;;;;;2.17;2.07;;;4.30;99.90;;;;;;5011272;28;20208;-49
2022/11/25 07:18:32;;;;;;;2.37;1.33;;;4.30;99.90;;;;;;5015310;28;20212;-49
2022/11/25 07:21:04;;;;;;;2.23;1.47;;;4.30;99.90;;;;;;5022413;28;20204;-49
2022/11/25 07:23:31;;;;;;;0.90;0.90;;;4.40;99.90;;;;;;5025651;28;20220;-48
2022/11/25 07:26:03;;;;;;;1.60;0.83;;;4.40;99.90;;;;;;5024143;28;20666;-50
2022/11/25 07:28:30;;;;;;;0.83;0.80;;;4.40;99.90;;;;;;5028482;28;20261;-49
2022/11/25 07:31:05;;;;;;;1.23;0.90;;;4.50;99.90;;;;;;5014482;28;20676;-49
2022/11/25 07:33:32;;;;;;;0.37;0.37;;;4.50;99.90;;;;;;5019453;28;20227;-49
2022/11/25 07:36:02;;;;;;;5.00;0.70;;;4.60;99.90;;;;;;5031472;28;20204;-49
2022/11/25 07:38:29;;;;;;;0.77;0.77;;;4.70;99.90;;;;;;5024466;28;20205;-49
2022/11/25 07:40:56;;;;;;;2.07;1.00;;;4.80;99.90;;;;;;5020018;28;20736;-50
2022/11/25 07:43:23;;;;;;;3.93;1.03;;;4.90;99.90;;;;;;5019787;28;20709;-49
2022/11/25 07:45:50;;;;;;;2.27;1.00;;;5.00;99.90;;;;;;5019717;28;20226;-49
2022/11/25 07:48:19;;;;;;;1.80;0.90;;;5.10;99.90;;;;;;5027679;28;20633;-49
2022/11/25 07:50:48;;;;;;;1.97;1.90;;;5.10;99.90;;;;;;5031807;28;20275;-49
2022/11/25 07:53:16;;;;;;;0.83;0.60;;;5.20;99.90;;;;;;5031556;28;20618;-49
2022/11/25 07:55:42;;;;;;;0.73;0.70;;;5.30;99.90;;;;;;5025000;28;20269;-50
2022/11/25 07:58:09;;;;;;;0.63;0.63;;;5.40;99.90;;;;;;5012964;28;20213;-49
2022/11/25 08:00:36;;;;;;;0.83;0.70;;;5.50;99.90;;;;;;5013906;28;20687;-50
2022/11/25 08:03:03;;;;;;;1.10;0.60;;;5.70;99.90;;;;;;5020678;28;20641;-49
2022/11/25 08:05:32;;;;;;;0.90;0.80;;;5.80;99.90;;;;;;5033378;28;20756;-49
2022/11/25 08:07:59;;;;;;;0.30;0.30;;;5.90;99.90;;;;;;5033561;28;20209;-49
2022/11/25 08:10:26;;;;;;;1.03;0.60;;;6.00;99.90;;;;;;5027829;28;20258;-50
2022/11/25 08:12:53;;;;;;;0.93;0.93;;;6.10;99.90;;;;;;5027886;28;20229;-49
2022/11/25 08:15:20;;;;;;;1.93;1.80;;;6.30;99.90;;;;;;5019370;28;20206;-49
2022/11/25 08:17:51;;;;;;;1.10;1.00;;;6.50;99.90;;;;;;5020630;28;20261;-50
2022/11/25 08:20:18;;;;;;;1.63;1.27;;;6.50;99.90;;;;;;5023700;28;20679;-49
2022/11/25 08:22:46;;;;;;;1.33;1.23;;;6.50;99.90;;;;;;5023497;28;20285;-50
2022/11/25 08:25:13;;;;;;;1.80;1.40;;;6.60;99.90;;;;;;5021181;28;20195;-49
2022/11/25 08:27:41;;;;;;;1.23;1.23;;;6.60;99.90;;;;;;5033680;28;20208;-49
2022/11/25 08:30:09;;;;;;;2.50;1.57;;;6.60;99.90;;;;;;5029754;28;20665;-49
2022/11/25 08:32:37;;;;;;;1.40;1.30;;;6.70;99.90;;;;;;5027775;28;20225;-50
2022/11/25 08:35:06;;;;;;;6.10;4.17;;;6.80;99.90;;;;;;5011948;28;20666;-49
2022/11/25 08:37:33;;;;;;;3.23;2.93;;;6.90;99.90;;;;;;5020631;28;20562;-49
2022/11/25 08:40:02;;;;;;;2.37;1.73;;;7.10;99.90;;;;;;5018190;28;20205;-49
2022/11/25 08:42:29;;;;;;;3.17;2.93;;;7.20;99.90;;;;;;5022974;28;20315;-49
2022/11/25 08:44:56;;;;;;;2.83;1.30;;;7.30;99.90;;;;;;5025639;28;20199;-49
2022/11/25 08:47:24;;;;;;;6.57;1.90;;;7.50;99.90;;;;;;5026877;28;20228;-50
2022/11/25 08:49:52;;;;;;;1.00;1.00;;;7.60;99.90;;;;;;5017767;28;20200;-49
2022/11/25 08:52:19;;;;;;;2.90;1.57;;;7.90;99.90;;;;;;5018764;28;20289;-47
2022/11/25 08:54:46;;;;;;;3.47;0.90;;;8.00;99.90;;;;;;5017660;28;20254;-52
2022/11/25 08:57:14;;;;;;;0.90;0.80;;;8.10;99.90;;;;;;5020909;28;20205;-48
2022/11/25 08:59:42;;;;;;;1.43;0.90;;;8.10;99.90;;;;;;5011704;28;20221;-49
2022/11/25 09:02:12;;;;;;;3.83;1.60;;;8.10;99.90;;;;;;5015992;28;20220;-48
2022/11/25 09:04:39;;;;;;;1.40;1.30;;;8.00;99.90;;;;;;5013662;28;20748;-50
2022/11/25 09:07:06;;;;;;;1.10;1.00;;;7.90;99.90;;;;;;5024932;28;20204;-49
2022/11/25 09:09:35;;;;;;;3.70;0.60;;;7.90;99.90;;;;;;5030861;28;20208;-50
2022/11/25 09:12:02;;;;;;;1.07;0.83;;;7.90;99.90;;;;;;5026579;28;20655;-51
2022/11/25 09:14:33;;;;;;;1.83;0.80;;;7.90;99.90;;;;;;5047736;23;20284;-52
2022/11/25 09:17:00;;;;;;;1.87;0.60;;;8.00;99.90;;;;;;5023125;28;20644;-53
2022/11/25 09:19:29;;;;;;;1.17;1.17;;;8.30;99.90;;;;;;5024281;28;20208;-53
2022/11/25 09:21:56;;;;;;;1.30;1.20;;;8.50;99.90;;;;;;5031223;28;20208;-52
2022/11/25 09:24:23;;;;;;;0.93;0.80;;;8.70;99.90;;;;;;5031507;28;20306;-53
2022/11/25 09:26:50;;;;;;;0.83;0.53;;;8.70;99.90;;;;;;5018482;28;20679;-52
2022/11/25 09:29:17;;;;;;;0.70;0.70;;;8.60;99.90;;;;;;5015954;28;20204;-53
2022/11/25 09:31:46;;;;;;;4.07;2.93;;;8.60;99.90;;;;;;5024158;28;20665;-52
2022/11/25 09:34:13;;;;;;;0.73;0.73;;;8.70;99.90;;;;;;5031039;28;20695;-52
2022/11/25 09:36:40;;;;;;;0.50;0.50;;;8.80;99.90;;;;;;5021240;28;20202;-53
2022/11/25 09:39:07;;;;;;;1.60;0.80;;;8.70;99.90;;;;;;5023584;28;20249;-52
2022/11/25 09:47:41;;;;;;;2.07;0.50;;;8.60;99.90;;;;;;4995121;28;20557;-52
2022/11/25 09:50:17;;;;;;;3.57;0.40;;;8.80;99.90;;;;;;5011668;28;20200;-52
2022/11/25 09:52:53;;;;;;;1.07;0.20;;;9.00;99.90;;;;;;5011767;28;20234;-53
2022/11/25 09:55:22;;;;;;;1.73;0.50;;;9.10;99.90;;;;;;5016562;28;20234;-52
2022/11/25 09:58:06;;;;;;;0.30;0.30;;;9.20;99.90;;;;;;5023489;28;20205;-52
2022/11/25 10:00:38;;;;;;;0.80;0.50;;;9.30;99.90;;;;;;5032053;28;20203;-52
2022/11/25 10:03:15;;;;;;;0.83;0.30;;;9.40;99.90;;;;;;5030845;28;20270;-52
2022/11/25 10:05:46;;;;;;;1.40;0.43;;;9.50;99.90;;;;;;5025863;28;20208;-52
2022/11/25 10:08:17;;;;;;;1.93;0.30;;;9.50;99.90;;;;;;5025187;28;20196;-53
2022/11/25 10:10:46;;;;;;;1.80;0.60;;;9.50;99.90;;;;;;5031500;28;20679;-52
2022/11/25 10:13:19;;;;;;;1.43;0.60;;;9.40;99.90;;;;;;5030406;28;20665;-52
2022/11/25 10:15:50;;;;;;;0.80;0.50;;;9.30;99.90;;;;;;5025731;28;20209;-52
2022/11/25 10:18:25;;;;;;;1.07;0.50;;;9.30;99.90;;;;;;5025486;28;20255;-53
2022/11/25 10:20:52;;;;;;;2.90;0.60;;;9.20;99.90;;;;;;5031319;28;20201;-52
2022/11/25 10:23:24;;;;;;;0.60;0.60;;;9.20;99.90;;;;;;5030486;28;20224;-52
2022/11/25 10:25:55;;;;;;;3.73;0.70;;;9.20;99.90;;;;;;5024633;28;20637;-53
2022/11/25 10:28:24;;;;;;;0.53;0.53;;;9.20;99.90;;;;;;5026013;28;20266;-52
2022/11/25 10:30:59;;;;;;;4.50;4.07;;;9.30;99.90;;;;;;5031251;28;20254;-53
2022/11/25 10:33:30;;;;;;;2.40;1.27;;;9.30;99.90;;;;;;5030527;28;20268;-52
2022/11/25 10:36:05;;;;;;;1.23;0.50;;;9.20;99.90;;;;;;5024337;28;20355;-53
2022/11/25 10:38:40;;;;;;;2.87;1.47;;;9.20;99.90;;;;;;5027523;28;20269;-52
2022/11/25 10:41:07;;;;;;;2.43;0.80;;;9.20;99.90;;;;;;5031336;28;20208;-52
2022/11/25 10:43:34;;;;;;;1.77;0.83;;;9.30;99.90;;;;;;5020943;28;20642;-51
2022/11/25 10:46:10;;;;;;;1.00;0.67;;;9.30;99.90;;;;;;5013461;28;20208;-52
2022/11/25 10:48:56;;;;;;;0.97;0.50;;;9.30;99.90;;;;;;5027878;28;20201;-53
2022/11/25 10:51:36;;;;;;;3.93;0.80;;;9.30;99.90;;;;;;5031352;28;20688;-52
2022/11/25 10:54:12;;;;;;;1.07;0.50;;;9.40;99.90;;;;;;5030464;28;20224;-53
2022/11/25 10:56:45;;;;;;;4.50;1.00;;;9.50;99.90;;;;;;5019297;28;20226;-53
2022/11/25 10:59:22;;;;;;;1.43;0.90;;;9.60;99.90;;;;;;5030913;28;20262;-53
2022/11/25 11:01:51;;;;;;;0.60;0.60;;;9.70;99.90;;;;;;5031267;28;20628;-52
2022/11/25 11:04:20;;;;;;;1.88;0.75;;;9.80;99.90;;;;;;5000533;28;20462;-55
2022/11/25 11:06:50;;;;;;;2.53;0.90;;;9.80;99.90;;;;;;5009665;28;20867;-53
2022/11/25 11:09:37;;;;;;;1.03;0.70;;;9.80;99.90;;;;;;5014813;28;20448;-52
2022/11/25 11:12:19;;;;;;;0.73;0.50;;;9.80;99.90;;;;;;5014691;28;20205;-52
2022/11/25 11:14:47;;;;;;;0.70;0.70;;;9.80;99.90;;;;;;5010567;28;20234;-52
2022/11/25 11:17:34;;;;;;;0.70;0.70;;;9.80;99.90;;;;;;5014815;28;20209;-53
2022/11/25 11:20:14;;;;;;;1.57;0.77;;;9.80;99.90;;;;;;5014464;28;20212;-52
2022/11/25 11:22:48;;;;;;;1.83;0.83;;;9.80;99.90;;;;;;5013470;28;20578;-52
2022/11/25 11:25:28;;;;;;;1.57;1.00;;;9.80;99.90;;;;;;5009840;28;20672;-51
2022/11/25 11:27:55;;;;;;;0.80;0.73;;;9.90;99.90;;;;;;5021606;28;20687;-52
2022/11/25 11:30:24;;;;;;;1.80;1.57;;;10.00;99.90;;;;;;5017598;28;20209;-51
2022/11/25 11:33:01;;;;;;;4.10;0.97;;;10.00;99.90;;;;;;5013579;28;20295;-51
2022/11/25 11:35:50;;;;;;;1.57;0.80;;;10.00;99.90;;;;;;5014020;28;20274;-52
2022/11/25 11:38:29;;;;;;;1.13;1.10;;;10.00;99.90;;;;;;5014341;28;20296;-52
2022/11/25 11:41:08;;;;;;;2.77;1.77;;;10.10;99.90;;;;;;5014205;28;20294;-52
2022/11/25 11:43:47;;;;;;;4.87;3.80;;;10.10;99.90;;;;;;5009005;28;20225;-52
2022/11/25 11:46:25;;;;;;;3.13;1.13;;;10.20;99.90;;;;;;5021172;28;20198;-51
2022/11/25 11:49:02;;;;;;;1.53;0.90;;;10.50;99.90;;;;;;5019590;28;20293;-51
2022/11/25 11:51:38;;;;;;;3.00;0.67;;;10.70;99.90;;;;;;5013530;28;20687;-53
2022/11/25 11:54:11;;;;;;;2.27;1.90;;;10.80;99.90;;;;;;5005308;28;20281;-52
2022/11/25 11:56:40;;;;;;;4.37;2.30;;;10.90;99.90;;;;;;5022239;28;20209;-53
2022/11/25 11:59:32;;;;;;;7.60;4.03;;;10.90;99.90;;;;;;5014086;28;20213;-53
2022/11/25 12:02:15;;;;;;;4.00;3.77;;;11.00;99.90;;;;;;5018060;28;20293;-53
2022/11/25 12:04:48;;;;;;;5.23;3.43;;;11.00;99.90;;;;;;5012407;28;20225;-52
2022/11/25 12:07:22;;;;;;;7.07;4.00;;;10.80;99.90;;;;;;5033323;28;20211;-51
2022/11/25 12:09:55;;;;;;;5.07;4.07;;;10.70;99.90;;;;;;5033429;28;20298;-53
2022/11/25 12:12:32;;;;;;;5.47;4.23;;;10.60;99.90;;;;;;5022556;28;20209;-50
2022/11/25 12:15:06;;;;;;;6.93;4.10;;;10.50;99.90;;;;;;5012134;28;20649;-50
2022/11/25 12:17:41;;;;;;;4.43;4.13;;;10.40;99.90;;;;;;5012044;28;20255;-50
2022/11/25 12:20:17;;;;;;;5.00;4.60;;;10.20;99.90;;;;;;5003947;28;20204;-50
2022/11/25 12:22:51;;;;;;;5.67;4.03;;;10.30;99.90;;;;;;5008165;28;20264;-50
2022/11/25 12:25:22;;;;;;;7.83;4.30;;;10.20;99.90;;;;;;4999653;28;20209;-53
2022/11/25 12:27:53;;;;;;;4.73;4.13;;;10.20;99.90;;;;;;4993310;28;20206;-51
2022/11/25 12:30:22;;;;;;;4.67;4.23;;;10.30;99.90;;;;;;5002976;28;20670;-50
2022/11/25 12:32:57;;;;;;;3.73;3.53;;;10.40;99.90;;;;;;5005482;28;20206;-51
2022/11/25 12:35:36;;;;;;;6.93;4.33;;;10.40;99.90;;;;;;4995963;28;20219;-52
2022/11/25 12:38:15;;;;;;;4.30;3.83;;;10.30;99.90;;;;;;5011440;28;20205;-50
2022/11/25 12:40:48;;;;;;;5.90;5.03;;;10.40;99.90;;;;;;5011646;28;20259;-53
2022/11/25 12:43:25;;;;;;;4.43;4.10;;;10.50;99.90;;;;;;5012622;28;20225;-51
2022/11/25 12:46:03;;;;;;;6.67;4.30;;;10.60;99.90;;;;;;4993402;28;20721;-52
2022/11/25 12:48:30;;;;;;;6.50;4.43;;;10.70;99.90;;;;;;4993357;28;20209;-52
2022/11/25 12:51:02;;;;;;;4.97;4.30;;;10.80;99.90;;;;;;4993267;28;20198;-52
2022/11/25 12:53:44;;;;;;;5.70;4.10;;;10.80;99.90;;;;;;5000102;28;20306;-51
2022/11/25 12:56:22;;;;;;;5.43;4.33;;;10.70;99.90;;;;;;4993347;28;20196;-51
2022/11/25 12:59:14;;;;;;;4.23;3.83;;;10.70;99.90;;;;;;4993161;28;20205;-52
2022/11/25 13:01:54;;;;;;;7.77;4.70;;;10.60;99.90;;;;;;5001548;28;20206;-51
2022/11/25 13:04:52;;;;;;;4.13;3.80;;;10.60;99.90;;;;;;4994147;28;20230;-51
2022/11/25 13:07:29;;;;;;;5.50;3.83;;;10.60;99.90;;;;;;5007953;28;20228;-51
2022/11/25 13:10:28;;;;;;;7.77;4.60;;;10.50;99.90;;;;;;5010058;28;20211;-51
2022/11/25 13:13:07;;;;;;;6.73;3.53;;;10.30;99.90;;;;;;5011811;28;20200;-54
2022/11/25 13:15:40;;;;;;;5.20;2.87;;;10.20;99.90;;;;;;5000839;28;20280;-52
2022/11/25 13:18:12;;;;;;;3.37;3.17;;;10.10;99.90;;;;;;4992468;28;20195;-51
2022/11/25 13:20:45;;;;;;;3.97;3.77;;;9.90;99.90;;;;;;5009125;28;20292;-51